createdAt,value
2019-01-08T00:03:16.429Z,3.45
2019-01-08T00:08:16.571Z,2.47
2019-01-08T00:13:17.680Z,2.79
2019-01-08T00:18:05.070Z,3.26
2019-01-08T00:23:12.373Z,2.84
2019-01-08T00:28:19.587Z,2.76
2019-01-08T00:33:40.604Z,2.83
2019-01-08T00:38:28.877Z,3.74
2019-01-08T00:43:49.890Z,3.14
2019-01-08T00:48:37.995Z,3.05
2019-01-08T00:53:59.232Z,3.18
2019-01-08T00:58:51.454Z,3.12
2019-01-08T01:04:06.686Z,3.17
2019-01-08T01:09:08.306Z,3.00
2019-01-08T01:13:55.399Z,3.06
2019-01-08T01:19:03.623Z,2.96
2019-01-08T01:24:11.850Z,3.61
2019-01-08T01:29:19.253Z,2.89
2019-01-08T01:34:26.395Z,3.36
2019-01-08T01:39:48.137Z,3.59
2019-01-08T01:44:48.117Z,2.89
2019-01-08T01:49:36.534Z,3.07
2019-01-08T01:54:57.356Z,2.69
2019-01-08T01:59:46.054Z,3.32
2019-01-08T02:05:06.207Z,2.82
2019-01-08T02:09:53.610Z,3.04
2019-01-08T02:15:00.708Z,2.75
2019-01-08T02:20:21.906Z,2.78
2019-01-08T02:25:10.096Z,3.67
2019-01-08T02:30:30.483Z,2.58
2019-01-08T02:35:17.718Z,3.00
2019-01-08T02:40:37.918Z,2.97
2019-01-08T02:45:38.095Z,2.79
2019-01-08T02:50:25.394Z,3.85
2019-01-08T02:55:45.368Z,4.16
2019-01-08T03:00:46.444Z,2.76
2019-01-08T03:05:47.533Z,3.40
2019-01-08T03:10:36.045Z,2.44
2019-01-08T03:15:56.030Z,2.31
2019-01-08T03:20:44.286Z,2.14
2019-01-08T03:26:05.271Z,2.51
2019-01-08T03:30:53.530Z,2.89
2019-01-08T03:36:27.052Z,3.17
2019-01-08T03:41:04.354Z,3.10
2019-01-08T03:46:12.411Z,2.74
2019-01-08T03:51:33.620Z,2.81
2019-01-08T03:56:21.819Z,3.63
2019-01-08T04:01:30.131Z,2.96
2019-01-08T04:06:38.234Z,2.50
2019-01-08T04:11:46.507Z,3.23
2019-01-08T04:16:53.723Z,3.28
2019-01-08T04:22:01.228Z,3.15
2019-01-08T04:27:08.470Z,3.61
2019-01-08T04:32:15.721Z,3.13
2019-01-08T04:37:23.962Z,3.26
2019-01-08T04:42:31.446Z,3.93
2019-01-08T04:47:39.638Z,3.63
2019-01-08T04:53:00.599Z,4.81
2019-01-08T04:57:47.833Z,3.38
2019-01-08T05:03:08.078Z,3.54
2019-01-08T05:08:09.065Z,3.61
2019-01-08T05:13:09.280Z,3.51
2019-01-08T05:17:57.331Z,4.30
2019-01-08T05:23:05.534Z,5.20
2019-01-08T05:28:13.777Z,4.24
2019-01-08T05:33:34.135Z,5.72
2019-01-08T05:38:21.326Z,4.89
2019-01-08T05:43:28.665Z,4.77
2019-01-08T05:48:49.753Z,4.67
2019-01-08T05:53:37.166Z,4.23
2019-01-08T05:58:44.355Z,4.74
2019-01-08T06:03:52.830Z,3.94
2019-01-08T06:09:00.768Z,4.86
2019-01-08T06:14:09.048Z,4.45
2019-01-08T06:19:30.049Z,4.89
2019-01-08T06:24:18.411Z,4.58
2019-01-08T06:29:38.408Z,4.45
2019-01-08T06:34:26.738Z,5.53
2019-01-08T06:39:33.815Z,4.86
2019-01-08T06:44:42.207Z,4.61
2019-01-08T06:50:02.375Z,4.56
2019-01-08T06:55:02.553Z,5.06
2019-01-08T07:00:03.604Z,5.26
2019-01-08T07:04:51.058Z,4.24
2019-01-08T07:09:58.257Z,4.65
2019-01-08T07:15:18.533Z,4.44
2019-01-08T07:20:18.774Z,4.29
2019-01-08T07:25:18.988Z,4.41
2019-01-08T07:30:07.209Z,4.16
2019-01-08T07:35:27.386Z,4.44
2019-01-08T07:40:28.472Z,4.27
2019-01-08T07:45:28.656Z,3.48
2019-01-08T07:50:28.603Z,4.29
2019-01-08T07:55:16.919Z,5.06
2019-01-08T08:00:36.909Z,4.78
2019-01-08T08:05:25.309Z,5.21
2019-01-08T08:10:32.486Z,6.19
2019-01-08T08:15:52.989Z,4.98
2019-01-08T08:20:40.250Z,4.39
2019-01-08T08:25:48.475Z,4.02
2019-01-08T08:30:58.973Z,4.38
2019-01-08T08:36:03.072Z,4.21
2019-01-08T08:41:24.026Z,4.29
2019-01-08T08:46:25.231Z,5.21
2019-01-08T08:51:12.330Z,4.85
2019-01-08T08:56:20.580Z,4.42
2019-01-08T09:01:28.784Z,4.42
2019-01-08T09:06:35.951Z,4.48
2019-01-08T09:11:56.908Z,4.28
2019-01-08T09:21:58.880Z,4.85
2019-01-08T09:26:59.984Z,4.40
2019-01-08T09:31:59.979Z,4.77
2019-01-08T09:36:48.446Z,4.30
2019-01-08T09:41:55.544Z,5.54
2019-01-08T09:47:03.801Z,4.18
2019-01-08T09:52:11.795Z,4.81
2019-01-08T09:57:19.996Z,4.94
2019-01-08T10:02:40.984Z,4.54
2019-01-08T10:07:42.555Z,4.75
2019-01-08T10:12:42.684Z,4.92
2019-01-08T10:17:42.967Z,4.62
2019-01-08T10:22:31.194Z,4.35
2019-01-08T10:27:51.059Z,4.42
2019-01-08T10:32:39.167Z,4.42
2019-01-08T10:37:46.695Z,4.33
2019-01-08T10:43:06.722Z,4.34
2019-01-08T10:47:54.872Z,4.29
2019-01-08T10:53:03.142Z,4.13
2019-01-08T10:58:23.357Z,4.03
2019-01-08T11:03:23.326Z,4.74
2019-01-08T11:08:11.783Z,4.34
2019-01-08T11:13:18.978Z,4.98
2019-01-08T11:18:26.247Z,4.02
2019-01-08T11:23:34.201Z,3.95
2019-01-08T11:28:43.245Z,4.60
2019-01-08T11:33:49.548Z,4.09
2019-01-08T11:39:10.880Z,3.95
2019-01-08T11:43:57.988Z,5.19
2019-01-08T11:49:06.344Z,4.82
2019-01-08T11:59:14.434Z,4.89
2019-01-08T12:04:21.536Z,3.99
2019-01-08T12:09:29.661Z,3.83
2019-01-08T12:14:50.789Z,3.71
2019-01-08T12:19:40.279Z,3.47
2019-01-08T12:30:06.310Z,3.78
2019-01-08T12:34:54.479Z,3.89
2019-01-08T12:40:14.758Z,4.46
2019-01-08T12:45:01.846Z,4.64
2019-01-08T12:55:29.854Z,3.53
2019-01-08T13:00:18.190Z,4.25
2019-01-08T13:05:38.304Z,3.80
2019-01-08T13:10:25.689Z,4.47
2019-01-08T13:15:33.443Z,4.33
2019-01-08T13:20:40.647Z,3.38
2019-01-08T13:26:01.790Z,3.66
2019-01-08T13:30:49.011Z,3.81
2019-01-08T13:36:10.127Z,3.33
2019-01-08T13:40:57.279Z,3.31
2019-01-08T13:51:21.987Z,3.57
2019-01-08T13:56:10.189Z,3.81
2019-01-08T14:01:30.303Z,4.47
2019-01-08T14:06:31.358Z,2.89
2019-01-08T14:11:33.059Z,3.39
2019-01-08T14:16:33.161Z,3.18
2019-01-08T14:21:20.358Z,3.76
2019-01-08T14:26:30.678Z,3.47
2019-01-08T14:31:50.865Z,3.09
2019-01-08T14:36:39.058Z,3.79
2019-01-08T14:41:59.253Z,3.61
2019-01-08T14:47:00.367Z,4.16
2019-01-08T14:52:00.710Z,3.46
2019-01-08T14:56:48.938Z,3.87
2019-01-08T15:01:56.275Z,4.62
2019-01-08T15:07:03.329Z,4.44
2019-01-08T15:12:11.575Z,4.07
2019-01-08T15:17:32.577Z,3.72
2019-01-08T15:22:20.930Z,3.18
2019-01-08T15:27:41.143Z,3.48
2019-01-08T15:32:41.340Z,3.79
2019-01-08T15:42:29.700Z,3.29
2019-01-08T15:47:49.842Z,3.54
2019-01-08T15:52:50.185Z,3.71
2019-01-08T15:57:50.323Z,3.27
2019-01-08T16:02:50.415Z,3.02
2019-01-08T16:07:38.618Z,3.29
2019-01-08T16:18:03.701Z,3.37
2019-01-08T16:23:03.965Z,3.17
2019-01-08T16:28:04.073Z,3.81
2019-01-08T16:33:04.191Z,3.84
2019-01-08T16:38:05.322Z,3.75
2019-01-08T16:42:52.749Z,3.14
2019-01-08T16:48:01.101Z,4.06
2019-01-08T16:53:20.139Z,3.45
2019-01-08T16:58:22.822Z,4.16
2019-01-08T17:03:24.848Z,4.63
2019-01-08T17:13:12.970Z,5.15
2019-01-08T17:18:34.183Z,4.76
2019-01-08T17:23:21.544Z,4.88
2019-01-08T17:28:42.728Z,4.39
2019-01-08T17:33:43.079Z,4.29
2019-01-08T17:38:43.261Z,4.24
2019-01-08T17:43:33.649Z,4.44
2019-01-08T17:48:50.932Z,4.19
2019-01-08T17:53:51.058Z,5.14
2019-01-08T17:58:53.796Z,4.39
2019-01-08T18:03:55.266Z,5.44
2019-01-08T18:08:42.372Z,5.44
2019-01-08T18:14:03.527Z,4.48
2019-01-08T18:19:04.637Z,5.40
2019-01-08T18:24:04.818Z,4.63
2019-01-08T18:29:04.921Z,4.54
2019-01-08T18:34:05.073Z,4.66
2019-01-08T18:38:52.295Z,4.98
2019-01-08T18:49:16.120Z,5.08
2019-01-08T18:54:16.157Z,4.76
2019-01-08T18:59:17.215Z,5.16
2019-01-08T19:04:17.552Z,5.68
2019-01-08T19:09:17.547Z,5.45
2019-01-08T19:14:05.952Z,5.34
2019-01-08T19:19:26.114Z,5.33
2019-01-08T19:24:13.550Z,4.90
2019-01-08T19:29:34.983Z,5.72
2019-01-08T19:34:35.379Z,6.00
2019-01-08T19:39:35.516Z,6.25
2019-01-08T19:44:35.666Z,6.20
2019-01-08T19:49:36.778Z,5.48
2019-01-08T19:54:24.154Z,5.37
2019-01-08T19:59:44.260Z,5.31
2019-01-08T20:04:45.019Z,5.54
2019-01-08T20:09:45.001Z,5.14
2019-01-08T20:14:46.287Z,5.16
2019-01-08T20:19:47.374Z,5.41
2019-01-08T20:24:47.547Z,5.60
2019-01-08T20:34:54.298Z,5.90
2019-01-08T20:40:48.692Z,7.90
2019-01-08T20:46:07.567Z,6.09
2019-01-08T20:51:08.689Z,5.86
2019-01-08T20:56:09.801Z,5.63
2019-01-08T21:01:10.915Z,5.44
2019-01-08T21:05:58.219Z,6.37
2019-01-08T21:11:18.352Z,5.83
2019-01-08T21:16:19.719Z,6.19
2019-01-08T21:21:19.857Z,6.11
2019-01-08T21:26:07.662Z,6.79
2019-01-08T21:36:18.990Z,6.09
2019-01-08T21:41:29.830Z,6.27
2019-01-08T21:51:44.602Z,6.82
2019-01-08T21:56:32.933Z,7.02
2019-01-08T22:01:54.030Z,6.75
2019-01-08T22:06:54.280Z,6.86
2019-01-08T22:11:41.525Z,6.85
2019-01-08T22:17:03.276Z,5.89
2019-01-08T22:32:16.093Z,6.01
2019-01-08T22:42:07.261Z,5.10
2019-01-08T22:47:29.441Z,5.49
2019-01-08T22:52:16.801Z,5.93
2019-01-08T22:57:24.224Z,5.92
2019-01-08T23:02:44.332Z,5.74
2019-01-08T23:07:44.672Z,4.84
2019-01-08T23:12:44.816Z,5.15
2019-01-08T23:17:45.152Z,5.91
2019-01-08T23:22:45.291Z,5.69
2019-01-08T23:27:45.632Z,5.30
2019-01-08T23:32:32.870Z,4.75
2019-01-08T23:37:53.078Z,4.74
2019-01-08T23:42:53.066Z,4.47
2019-01-08T23:47:54.479Z,4.81
2019-01-08T23:52:54.456Z,4.82
2019-01-08T23:57:55.850Z,4.45
